sensor_id;sensor_type;location;lat;lon;timestamp;pressure;altitude;pressure_sealevel;temperature;humidity
30967;BME280;17649;51.836;8.330;2022-12-07T00:00:18;100984.16;;;5.19;100.00
30967;BME280;17649;51.836;8.330;2022-12-07T00:03:24;100951.06;;;5.09;100.00
30967;BME280;17649;51.836;8.330;2022-12-07T00:06:35;100984.91;;;5.24;100.00
30967;BME280;17649;51.836;8.330;2022-12-07T00:09:44;100950.34;;;5.04;100.00
30967;BME280;17649;51.836;8.330;2022-12-07T00:12:48;100958.53;;;5.17;100.00
30967;BME280;17649;51.836;8.330;2022-12-07T00:15:51;100967.81;;;5.23;100.00
30967;BME280;17649;51.836;8.330;2022-12-07T00:18:55;100983.00;;;5.30;100.00
30967;BME280;17649;51.836;8.330;2022-12-07T00:21:58;100959.97;;;4.96;100.00
30967;BME280;17649;51.836;8.330;2022-12-07T00:24:59;100962.84;;;5.17;100.00
30967;BME280;17649;51.836;8.330;2022-12-07T00:28:02;100948.19;;;5.22;100.00
30967;BME280;17649;51.836;8.330;2022-12-07T00:31:15;100941.53;;;5.15;100.00
30967;BME280;17649;51.836;8.330;2022-12-07T00:34:26;100950.56;;;5.28;100.00
30967;BME280;17649;51.836;8.330;2022-12-07T00:37:29;100927.91;;;5.13;100.00
30967;BME280;17649;51.836;8.330;2022-12-07T00:40:32;100938.97;;;5.15;100.00
30967;BME280;17649;51.836;8.330;2022-12-07T00:43:44;100938.66;;;5.25;100.00
30967;BME280;17649;51.836;8.330;2022-12-07T00:46:45;100933.91;;;5.12;100.00
30967;BME280;17649;51.836;8.330;2022-12-07T01:06:17;100920.75;;;5.24;100.00
30967;BME280;17649;51.836;8.330;2022-12-07T01:09:25;100929.25;;;5.26;100.00
30967;BME280;17649;51.836;8.330;2022-12-07T01:12:26;100940.16;;;5.32;100.00
30967;BME280;17649;51.836;8.330;2022-12-07T01:15:32;100928.75;;;5.43;100.00
30967;BME280;17649;51.836;8.330;2022-12-07T01:18:48;100928.47;;;5.53;100.00
30967;BME280;17649;51.836;8.330;2022-12-07T01:22:34;100943.19;;;5.47;100.00
30967;BME280;17649;51.836;8.330;2022-12-07T01:34:28;100960.59;;;5.37;100.00
30967;BME280;17649;51.836;8.330;2022-12-07T01:41:25;100940.13;;;5.34;100.00
30967;BME280;17649;51.836;8.330;2022-12-07T01:44:30;100964.66;;;5.44;100.00
30967;BME280;17649;51.836;8.330;2022-12-07T01:47:32;100968.09;;;5.43;100.00
30967;BME280;17649;51.836;8.330;2022-12-07T01:50:43;100964.75;;;5.41;100.00
30967;BME280;17649;51.836;8.330;2022-12-07T01:53:56;100957.09;;;5.39;100.00
30967;BME280;17649;51.836;8.330;2022-12-07T02:41:32;100941.84;;;5.33;100.00
30967;BME280;17649;51.836;8.330;2022-12-07T02:44:35;100934.31;;;5.27;100.00
30967;BME280;17649;51.836;8.330;2022-12-07T02:47:53;100931.81;;;5.26;100.00
30967;BME280;17649;51.836;8.330;2022-12-07T02:51:18;100944.84;;;5.48;100.00
30967;BME280;17649;51.836;8.330;2022-12-07T02:54:33;100940.50;;;5.50;100.00
30967;BME280;17649;51.836;8.330;2022-12-07T03:01:18;100938.38;;;5.36;100.00
30967;BME280;17649;51.836;8.330;2022-12-07T03:05:47;100928.66;;;5.46;100.00
30967;BME280;17649;51.836;8.330;2022-12-07T03:08:47;100934.38;;;5.26;100.00
30967;BME280;17649;51.836;8.330;2022-12-07T03:12:05;100925.75;;;5.28;100.00
30967;BME280;17649;51.836;8.330;2022-12-07T03:15:34;100933.69;;;5.21;100.00
30967;BME280;17649;51.836;8.330;2022-12-07T03:19:04;100928.66;;;5.16;100.00
30967;BME280;17649;51.836;8.330;2022-12-07T03:22:18;100927.94;;;5.11;100.00
30967;BME280;17649;51.836;8.330;2022-12-07T03:25:22;100913.34;;;4.82;100.00
30967;BME280;17649;51.836;8.330;2022-12-07T03:28:24;100916.88;;;4.78;100.00
30967;BME280;17649;51.836;8.330;2022-12-07T03:31:31;100927.75;;;4.86;100.00
30967;BME280;17649;51.836;8.330;2022-12-07T03:42:04;100921.59;;;4.93;100.00
30967;BME280;17649;51.836;8.330;2022-12-07T03:45:20;100919.34;;;4.81;100.00
30967;BME280;17649;51.836;8.330;2022-12-07T03:55:20;100917.59;;;4.51;100.00
30967;BME280;17649;51.836;8.330;2022-12-07T03:58:27;100923.78;;;4.42;100.00
30967;BME280;17649;51.836;8.330;2022-12-07T04:01:45;100925.53;;;4.40;100.00
30967;BME280;17649;51.836;8.330;2022-12-07T04:08:45;100917.41;;;4.23;100.00
30967;BME280;17649;51.836;8.330;2022-12-07T04:11:53;100920.16;;;4.15;100.00
30967;BME280;17649;51.836;8.330;2022-12-07T04:15:04;100915.78;;;4.20;100.00
30967;BME280;17649;51.836;8.330;2022-12-07T04:18:09;100924.59;;;4.08;100.00
30967;BME280;17649;51.836;8.330;2022-12-07T04:21:13;100920.47;;;4.03;100.00
30967;BME280;17649;51.836;8.330;2022-12-07T04:24:16;100929.78;;;4.05;100.00
30967;BME280;17649;51.836;8.330;2022-12-07T04:27:17;100915.59;;;3.92;100.00
30967;BME280;17649;51.836;8.330;2022-12-07T04:34:19;100922.06;;;4.07;100.00
30967;BME280;17649;51.836;8.330;2022-12-07T04:37:27;100915.03;;;4.15;100.00
30967;BME280;17649;51.836;8.330;2022-12-07T04:40:29;100917.66;;;4.12;100.00
30967;BME280;17649;51.836;8.330;2022-12-07T04:43:36;100908.38;;;4.08;100.00
30967;BME280;17649;51.836;8.330;2022-12-07T04:46:46;100922.22;;;3.99;100.00
30967;BME280;17649;51.836;8.330;2022-12-07T04:49:58;100926.22;;;4.11;100.00
30967;BME280;17649;51.836;8.330;2022-12-07T04:53:01;100929.88;;;4.02;100.00
30967;BME280;17649;51.836;8.330;2022-12-07T04:56:11;100922.88;;;4.09;100.00
30967;BME280;17649;51.836;8.330;2022-12-07T04:59:18;100922.16;;;4.04;100.00
30967;BME280;17649;51.836;8.330;2022-12-07T05:02:27;100927.31;;;4.01;100.00
30967;BME280;17649;51.836;8.330;2022-12-07T05:05:29;100932.75;;;3.88;100.00
30967;BME280;17649;51.836;8.330;2022-12-07T05:08:36;100912.59;;;3.73;100.00
30967;BME280;17649;51.836;8.330;2022-12-07T05:11:42;100923.22;;;3.94;100.00
30967;BME280;17649;51.836;8.330;2022-12-07T05:14:53;100911.38;;;3.89;100.00
30967;BME280;17649;51.836;8.330;2022-12-07T05:18:01;100919.44;;;3.73;100.00
30967;BME280;17649;51.836;8.330;2022-12-07T05:21:04;100918.91;;;3.96;100.00
30967;BME280;17649;51.836;8.330;2022-12-07T05:24:11;100916.78;;;4.13;100.00
30967;BME280;17649;51.836;8.330;2022-12-07T05:27:12;100920.91;;;4.20;100.00
30967;BME280;17649;51.836;8.330;2022-12-07T05:30:19;100920.91;;;4.20;100.00
30967;BME280;17649;51.836;8.330;2022-12-07T05:33:23;100923.50;;;4.18;100.00
30967;BME280;17649;51.836;8.330;2022-12-07T05:36:26;100923.00;;;4.04;100.00
30967;BME280;17649;51.836;8.330;2022-12-07T05:39:39;100915.03;;;4.15;100.00
30967;BME280;17649;51.836;8.330;2022-12-07T05:46:46;100904.81;;;4.13;100.00
30967;BME280;17649;51.836;8.330;2022-12-07T05:49:49;100908.44;;;4.06;100.00
30967;BME280;17649;51.836;8.330;2022-12-07T05:53:07;100893.22;;;3.99;100.00
30967;BME280;17649;51.836;8.330;2022-12-07T05:56:10;100904.41;;;3.95;100.00
30967;BME280;17649;51.836;8.330;2022-12-07T06:03:05;100899.91;;;4.06;100.00
30967;BME280;17649;51.836;8.330;2022-12-07T06:06:09;100898.31;;;4.02;100.00
30967;BME280;17649;51.836;8.330;2022-12-07T06:09:12;100896.53;;;4.04;100.00
30967;BME280;17649;51.836;8.330;2022-12-07T06:12:41;100898.97;;;4.08;100.00
30967;BME280;17649;51.836;8.330;2022-12-07T06:15:45;100911.09;;;4.02;100.00
30967;BME280;17649;51.836;8.330;2022-12-07T06:18:52;100907.91;;;3.92;100.00
30967;BME280;17649;51.836;8.330;2022-12-07T06:21:56;100912.09;;;3.95;100.00
30967;BME280;17649;51.836;8.330;2022-12-07T06:25:30;100908.81;;;3.89;100.00
30967;BME280;17649;51.836;8.330;2022-12-07T06:28:33;100909.63;;;3.92;100.00
30967;BME280;17649;51.836;8.330;2022-12-07T06:31:45;100909.75;;;3.85;100.00
30967;BME280;17649;51.836;8.330;2022-12-07T06:34:52;100911.50;;;3.83;100.00
30967;BME280;17649;51.836;8.330;2022-12-07T06:37:57;100910.97;;;3.69;100.00
30967;BME280;17649;51.836;8.330;2022-12-07T06:41:22;100917.66;;;3.76;100.00
30967;BME280;17649;51.836;8.330;2022-12-07T06:44:25;100918.44;;;3.78;100.00
30967;BME280;17649;51.836;8.330;2022-12-07T06:47:33;100908.66;;;3.58;100.00
30967;BME280;17649;51.836;8.330;2022-12-07T06:50:36;100921.41;;;3.60;100.00
30967;BME280;17649;51.836;8.330;2022-12-07T06:53:39;100921.28;;;3.66;100.00
30967;BME280;17649;51.836;8.330;2022-12-07T06:57:15;100921.53;;;3.54;100.00
30967;BME280;17649;51.836;8.330;2022-12-07T07:00:32;100921.16;;;3.72;100.00
30967;BME280;17649;51.836;8.330;2022-12-07T07:03:45;100918.31;;;3.46;100.00
30967;BME280;17649;51.836;8.330;2022-12-07T07:07:14;100929.13;;;3.57;100.00
30967;BME280;17649;51.836;8.330;2022-12-07T07:10:16;100933.72;;;3.43;100.00
30967;BME280;17649;51.836;8.330;2022-12-07T11:45:41;100851.91;;;5.66;100.00
30967;BME280;17649;51.836;8.330;2022-12-07T11:49:46;100852.19;;;5.57;100.00
30967;BME280;17649;51.836;8.330;2022-12-07T11:53:33;100842.13;;;6.05;100.00
30967;BME280;17649;51.836;8.330;2022-12-07T11:57:09;100840.50;;;6.77;100.00
30967;BME280;17649;51.836;8.330;2022-12-07T12:00:36;100812.13;;;7.47;100.00
30967;BME280;17649;51.836;8.330;2022-12-07T12:04:47;100815.47;;;7.50;100.00
30967;BME280;17649;51.836;8.330;2022-12-07T12:15:57;100830.63;;;6.42;100.00
30967;BME280;17649;51.836;8.330;2022-12-07T12:19:40;100817.28;;;5.78;100.00
30967;BME280;17649;51.836;8.330;2022-12-07T12:23:06;100807.31;;;5.96;100.00
30967;BME280;17649;51.836;8.330;2022-12-07T12:26:44;100814.59;;;6.34;100.00
30967;BME280;17649;51.836;8.330;2022-12-07T12:30:35;100820.38;;;7.77;100.00
30967;BME280;17649;51.836;8.330;2022-12-07T12:38:20;100804.69;;;7.18;100.00
30967;BME280;17649;51.836;8.330;2022-12-07T12:53:21;100797.75;;;7.64;100.00
30967;BME280;17649;51.836;8.330;2022-12-07T12:56:58;100772.91;;;6.74;100.00
30967;BME280;17649;51.836;8.330;2022-12-07T13:00:31;100791.13;;;6.68;100.00
30967;BME280;17649;51.836;8.330;2022-12-07T13:04:02;100791.41;;;6.60;100.00
30967;BME280;17649;51.836;8.330;2022-12-07T13:08:21;100781.84;;;6.15;100.00
30967;BME280;17649;51.836;8.330;2022-12-07T13:11:34;100778.94;;;6.00;100.00
30967;BME280;17649;51.836;8.330;2022-12-07T13:15:00;100769.34;;;6.30;100.00
30967;BME280;17649;51.836;8.330;2022-12-07T13:24:38;100769.38;;;6.76;100.00
30967;BME280;17649;51.836;8.330;2022-12-07T13:31:35;100770.44;;;6.22;100.00
30967;BME280;17649;51.836;8.330;2022-12-07T15:43:53;100724.22;;;4.61;100.00
30967;BME280;17649;51.836;8.330;2022-12-07T15:51:18;100709.72;;;4.60;100.00
30967;BME280;17649;51.836;8.330;2022-12-07T15:54:26;100717.66;;;4.82;100.00
30967;BME280;17649;51.836;8.330;2022-12-07T15:57:31;100726.88;;;4.87;100.00
30967;BME280;17649;51.836;8.330;2022-12-07T16:00:35;100714.84;;;4.61;100.00
30967;BME280;17649;51.836;8.330;2022-12-07T16:03:41;100709.81;;;4.57;100.00
30967;BME280;17649;51.836;8.330;2022-12-07T16:06:44;100709.72;;;4.61;100.00
30967;BME280;17649;51.836;8.330;2022-12-07T16:09:54;100704.44;;;4.66;100.00
30967;BME280;17649;51.836;8.330;2022-12-07T16:12:57;100696.56;;;4.72;100.00
30967;BME280;17649;51.836;8.330;2022-12-07T16:15:57;100699.91;;;4.74;100.00
30967;BME280;17649;51.836;8.330;2022-12-07T16:19:25;100710.91;;;4.79;100.00
30967;BME280;17649;51.836;8.330;2022-12-07T16:22:29;100696.81;;;4.64;100.00
30967;BME280;17649;51.836;8.330;2022-12-07T16:25:29;100697.91;;;4.56;100.00
30967;BME280;17649;51.836;8.330;2022-12-07T16:28:58;100706.06;;;4.68;100.00
30967;BME280;17649;51.836;8.330;2022-12-07T16:32:26;100681.59;;;4.58;100.00
30967;BME280;17649;51.836;8.330;2022-12-07T16:35:27;100692.56;;;4.63;100.00
30967;BME280;17649;51.836;8.330;2022-12-07T16:38:47;100674.19;;;4.49;100.00
30967;BME280;17649;51.836;8.330;2022-12-07T16:41:50;100694.19;;;4.66;100.00
30967;BME280;17649;51.836;8.330;2022-12-07T16:44:55;100682.81;;;4.45;100.00
30967;BME280;17649;51.836;8.330;2022-12-07T16:52:07;100678.78;;;4.38;100.00
30967;BME280;17649;51.836;8.330;2022-12-07T16:55:08;100687.84;;;4.49;100.00
30967;BME280;17649;51.836;8.330;2022-12-07T16:58:15;100699.63;;;4.55;100.00
30967;BME280;17649;51.836;8.330;2022-12-07T17:13:53;100673.34;;;4.48;100.00
30967;BME280;17649;51.836;8.330;2022-12-07T17:17:13;100679.56;;;4.40;100.00
30967;BME280;17649;51.836;8.330;2022-12-07T17:20:14;100680.25;;;4.46;100.00
30967;BME280;17649;51.836;8.330;2022-12-07T17:23:19;100667.16;;;4.26;100.00
30967;BME280;17649;51.836;8.330;2022-12-07T17:26:22;100668.72;;;4.30;100.00
30967;BME280;17649;51.836;8.330;2022-12-07T17:29:23;100675.88;;;4.50;100.00
30967;BME280;17649;51.836;8.330;2022-12-07T17:32:24;100680.31;;;4.43;100.00
30967;BME280;17649;51.836;8.330;2022-12-07T17:35:24;100675.53;;;4.33;100.00
30967;BME280;17649;51.836;8.330;2022-12-07T17:38:24;100663.44;;;4.36;100.00
30967;BME280;17649;51.836;8.330;2022-12-07T17:41:26;100660.84;;;4.38;100.00
30967;BME280;17649;51.836;8.330;2022-12-07T17:44:46;100675.59;;;4.30;100.00
30967;BME280;17649;51.836;8.330;2022-12-07T17:47:46;100658.88;;;4.47;100.00
30967;BME280;17649;51.836;8.330;2022-12-07T17:50:49;100664.97;;;4.12;100.00
30967;BME280;17649;51.836;8.330;2022-12-07T17:54:12;100666.78;;;4.09;100.00
30967;BME280;17649;51.836;8.330;2022-12-07T17:57:19;100665.31;;;4.00;100.00
30967;BME280;17649;51.836;8.330;2022-12-07T18:00:38;100667.19;;;4.25;100.00
30967;BME280;17649;51.836;8.330;2022-12-07T18:16:08;100639.50;;;4.08;100.00
30967;BME280;17649;51.836;8.330;2022-12-07T18:19:20;100630.00;;;4.11;100.00
30967;BME280;17649;51.836;8.330;2022-12-07T18:22:29;100648.53;;;4.21;100.00
30967;BME280;17649;51.836;8.330;2022-12-07T18:25:35;100644.28;;;4.20;100.00
30967;BME280;17649;51.836;8.330;2022-12-07T18:28:44;100625.94;;;4.04;100.00
30967;BME280;17649;51.836;8.330;2022-12-07T18:31:47;100629.25;;;4.08;100.00
30967;BME280;17649;51.836;8.330;2022-12-07T18:34:47;100629.13;;;4.12;100.00
30967;BME280;17649;51.836;8.330;2022-12-07T18:37:56;100627.16;;;4.22;100.00
30967;BME280;17649;51.836;8.330;2022-12-07T18:41:16;100644.19;;;4.23;100.00
30967;BME280;17649;51.836;8.330;2022-12-07T18:44:38;100620.88;;;4.03;100.00
30967;BME280;17649;51.836;8.330;2022-12-07T18:47:46;100630.44;;;3.96;100.00
30967;BME280;17649;51.836;8.330;2022-12-07T18:51:05;100621.16;;;3.92;100.00
30967;BME280;17649;51.836;8.330;2022-12-07T18:58:22;100608.56;;;3.84;100.00
30967;BME280;17649;51.836;8.330;2022-12-07T19:01:37;100631.47;;;4.20;100.00
30967;BME280;17649;51.836;8.330;2022-12-07T19:05:16;100628.28;;;4.12;100.00
30967;BME280;17649;51.836;8.330;2022-12-07T19:08:18;100601.28;;;4.02;100.00
30967;BME280;17649;51.836;8.330;2022-12-07T19:11:39;100597.69;;;4.07;100.00
30967;BME280;17649;51.836;8.330;2022-12-07T19:14:51;100614.69;;;4.10;100.00
30967;BME280;17649;51.836;8.330;2022-12-07T19:18:47;100604.78;;;3.98;100.00
30967;BME280;17649;51.836;8.330;2022-12-07T19:22:02;100619.91;;;4.07;100.00
30967;BME280;17649;51.836;8.330;2022-12-07T19:25:35;100601.75;;;4.14;100.00
30967;BME280;17649;51.836;8.330;2022-12-07T19:28:42;100612.03;;;4.13;100.00
30967;BME280;17649;51.836;8.330;2022-12-07T19:31:42;100614.19;;;4.27;100.00
30967;BME280;17649;51.836;8.330;2022-12-07T19:34:46;100604.44;;;4.10;100.00
30967;BME280;17649;51.836;8.330;2022-12-07T19:37:47;100593.38;;;4.09;100.00
30967;BME280;17649;51.836;8.330;2022-12-07T19:41:07;100595.34;;;4.29;100.00
30967;BME280;17649;51.836;8.330;2022-12-07T19:44:51;100590.31;;;4.26;100.00
30967;BME280;17649;51.836;8.330;2022-12-07T19:48:09;100590.09;;;4.34;100.00
30967;BME280;17649;51.836;8.330;2022-12-07T20:52:42;100542.28;;;3.75;100.00
30967;BME280;17649;51.836;8.330;2022-12-07T21:01:16;100538.94;;;3.73;100.00
30967;BME280;17649;51.836;8.330;2022-12-07T21:17:32;100526.59;;;3.86;100.00
30967;BME280;17649;51.836;8.330;2022-12-07T21:33:21;100515.31;;;3.93;100.00
30967;BME280;17649;51.836;8.330;2022-12-07T21:48:40;100524.00;;;3.58;100.00
30967;BME280;17649;51.836;8.330;2022-12-07T21:52:07;100514.09;;;3.77;100.00
30967;BME280;17649;51.836;8.330;2022-12-07T22:11:36;100503.31;;;3.66;100.00
30967;BME280;17649;51.836;8.330;2022-12-07T22:22:33;100506.31;;;3.80;100.00
30967;BME280;17649;51.836;8.330;2022-12-07T22:25:48;100506.19;;;3.84;100.00
30967;BME280;17649;51.836;8.330;2022-12-07T22:28:53;100496.28;;;3.74;100.00
30967;BME280;17649;51.836;8.330;2022-12-07T22:31:54;100495.44;;;3.72;100.00
30967;BME280;17649;51.836;8.330;2022-12-07T22:55:43;100476.69;;;3.71;100.00
30967;BME280;17649;51.836;8.330;2022-12-07T23:03:26;100458.66;;;3.76;100.00
30967;BME280;17649;51.836;8.330;2022-12-07T23:07:06;100462.91;;;3.77;100.00
30967;BME280;17649;51.836;8.330;2022-12-07T23:14:22;100431.72;;;3.64;100.00
